Wangaratta Aerodrome, Australia
Current Conditions -  °F | °C
As of 8:00 PM on Sunday 26 Oct 2014 (Local Time) from YMAY Reporting Station
Overcast Overcast  
Wind Chill: 75°   Ceiling: 12000
Heat Index: 75°   Visibility: 6mi
Dew Point: 46°   Wind: 7mph
Humidity: 36%   Direction: 320°NW
Pressure: 29.85"   Gusts: NA
Location:  36.42°S, 146.3°E
Report Text: YMAY 260900Z AUTO 32006KT 9999 // OVC120 24/08 Q1011
Loading
Personal Weather Stations






























Interactive Weather Map
Tropical Storm Tracking
New forecast layout! Learn more

10-Day Weather Forecast

Advertisements
Track Severe Weather on mobile